Ewing, Missouri
Current Conditions -  °F | °C
As of 9:54 AM on Wednesday 26 Nov 2014 (Local Time) from KUIN Reporting Station
Overcast Overcast  
Wind Chill: 23°   Ceiling: 4600
Heat Index: 32°   Visibility: 8mi
Dew Point: 26°   Wind: 13mph
Humidity: 79%   Direction: 140°SE
Pressure: 29.99"   Gusts: NA
Location:  40.01°N, 91.71°W
Report Text: KUIN 261554Z AUTO 14011KT 8SM OVC046 00/M03 A2999 RMK AO2 SLP163 T00001033
Loading
Personal Weather Stations






























Interactive Weather Map New forecast layout! Learn more

10-Day Weather Forecast

Advertisements
Track Severe Weather on mobile